Time;durP1;ratioP1;P1;durP2;ratioP2;P2;SDS_P1;SDS_P2;PMS_P1;PMS_P2;Temp;Humidity;BMP_temperature;BMP_pressure;BME280_temperature;BME280_humidity;BME280_pressure;Samples;Min_cycle;Max_cycle;Signal;HPM_P1;HPM_P2
2022/09/02 00:02:22;;;;;;;10.07;2.33;;;17.90;61.00;;;;;;5011590;28;20486;-78
2022/09/02 00:04:47;;;;;;;6.53;2.80;;;18.20;60.90;;;;;;5000095;28;20191;-77
2022/09/02 00:07:13;;;;;;;7.15;3.00;;;18.30;60.60;;;;;;5008226;28;20042;-77
2022/09/02 00:09:39;;;;;;;9.55;2.80;;;18.50;59.10;;;;;;5006362;28;20394;-77
2022/09/02 00:12:05;;;;;;;10.68;3.55;;;18.60;59.40;;;;;;5000809;28;20468;-76
2022/09/02 00:14:34;;;;;;;7.80;3.08;;;18.30;58.10;;;;;;5009404;28;20386;-77
2022/09/02 00:17:00;;;;;;;9.70;3.08;;;18.30;59.80;;;;;;5005073;28;20719;-77
2022/09/02 00:19:28;;;;;;;11.52;3.83;;;18.20;60.10;;;;;;5004888;28;20041;-78
2022/09/02 00:21:55;;;;;;;7.57;3.60;;;18.10;59.70;;;;;;5001390;28;20247;-77
2022/09/02 00:24:22;;;;;;;11.07;3.85;;;18.00;59.70;;;;;;5012648;28;20332;-77
2022/09/02 00:26:48;;;;;;;7.57;3.80;;;17.80;59.80;;;;;;5006249;28;20067;-78
2022/09/02 00:29:14;;;;;;;7.22;3.67;;;17.60;60.70;;;;;;5002948;28;20057;-78
2022/09/02 00:31:41;;;;;;;7.38;3.50;;;17.70;61.30;;;;;;5012032;28;20057;-78
2022/09/02 00:34:08;;;;;;;7.15;4.05;;;17.90;60.60;;;;;;5004033;28;20046;-78
2022/09/02 00:36:33;;;;;;;9.82;3.80;;;18.00;59.10;;;;;;5008941;28;20046;-78
2022/09/02 00:38:59;;;;;;;7.05;3.50;;;18.10;59.90;;;;;;5011200;28;20513;-78
2022/09/02 00:41:28;;;;;;;10.88;3.53;;;18.20;59.80;;;;;;5003803;28;20029;-77
2022/09/02 00:44:04;;;;;;;7.60;3.70;;;18.10;59.50;;;;;;5017010;28;20082;-77
2022/09/02 00:46:31;;;;;;;8.38;3.80;;;18.20;59.30;;;;;;5007003;28;20038;-77
2022/09/02 00:49:01;;;;;;;10.15;4.40;;;18.20;58.60;;;;;;5016874;28;20038;-78
2022/09/02 00:51:31;;;;;;;5.63;3.40;;;18.10;58.30;;;;;;5002446;28;20037;-77
2022/09/02 00:53:57;;;;;;;11.05;4.60;;;18.00;59.40;;;;;;4997658;28;20031;-77
2022/09/02 00:56:26;;;;;;;10.95;4.72;;;17.90;59.40;;;;;;4999823;28;20053;-78
2022/09/02 00:58:53;;;;;;;7.10;3.65;;;17.80;58.70;;;;;;5047016;28;20045;-76
2022/09/02 01:01:21;;;;;;;8.55;4.18;;;18.00;60.60;;;;;;5017866;28;20040;-77
2022/09/02 01:03:48;;;;;;;7.97;3.45;;;18.00;59.70;;;;;;5011928;28;20420;-78
2022/09/02 01:06:14;;;;;;;8.50;3.38;;;18.00;59.00;;;;;;5004180;28;20074;-77
2022/09/02 01:08:43;;;;;;;8.45;3.63;;;18.00;60.50;;;;;;5012190;28;20031;-77
2022/09/02 01:11:10;;;;;;;9.73;4.43;;;18.20;59.80;;;;;;5001907;28;20511;-77
2022/09/02 01:13:41;;;;;;;10.40;4.50;;;18.20;59.00;;;;;;5011308;28;20048;-78
2022/09/02 01:16:19;;;;;;;9.30;4.03;;;18.20;58.40;;;;;;5016327;28;20037;-78
2022/09/02 01:18:49;;;;;;;10.90;4.25;;;18.10;58.20;;;;;;4995481;28;20081;-78
2022/09/02 01:21:16;;;;;;;8.18;4.75;;;18.10;59.30;;;;;;5000279;28;20049;-78
2022/09/02 01:23:42;;;;;;;6.63;4.18;;;18.10;58.40;;;;;;5004668;28;20034;-77
2022/09/02 01:26:07;;;;;;;10.52;4.57;;;18.10;58.80;;;;;;5004451;28;20042;-77
2022/09/02 01:28:34;;;;;;;9.63;4.05;;;18.10;58.30;;;;;;5007700;28;20034;-78
2022/09/02 01:31:00;;;;;;;9.15;4.13;;;18.00;59.20;;;;;;5012990;28;20029;-78
2022/09/02 01:33:26;;;;;;;9.93;4.13;;;18.00;60.10;;;;;;4998383;28;20088;-77
2022/09/02 01:35:52;;;;;;;10.10;4.20;;;18.00;59.80;;;;;;5006754;28;20030;-77
2022/09/02 01:38:20;;;;;;;9.52;4.60;;;18.00;59.50;;;;;;5016905;28;20041;-78
2022/09/02 01:40:46;;;;;;;8.73;4.30;;;17.90;59.40;;;;;;5002999;28;20062;-78
2022/09/02 01:43:15;;;;;;;8.20;4.40;;;17.80;59.80;;;;;;5004461;28;20497;-77
2022/09/02 01:45:44;;;;;;;9.82;5.00;;;17.80;60.70;;;;;;5005052;28;20432;-77
2022/09/02 01:48:10;;;;;;;9.55;5.15;;;17.80;59.90;;;;;;5020648;28;20038;-77
2022/09/02 01:50:38;;;;;;;9.90;4.75;;;17.70;59.60;;;;;;5004035;28;20483;-78
2022/09/02 01:53:03;;;;;;;9.70;5.60;;;17.70;59.40;;;;;;5005173;28;20029;-78
2022/09/02 01:55:31;;;;;;;11.07;5.55;;;17.60;59.20;;;;;;5008932;28;20049;-77
2022/09/02 01:57:57;;;;;;;8.45;4.57;;;17.50;60.50;;;;;;5016061;28;20041;-77
2022/09/02 02:00:23;;;;;;;9.35;5.38;;;17.60;61.20;;;;;;4993522;28;20035;-77
2022/09/02 02:02:49;;;;;;;6.65;4.05;;;17.60;60.60;;;;;;5008347;28;20141;-78
2022/09/02 02:05:15;;;;;;;9.43;5.10;;;17.50;61.90;;;;;;4993498;28;20081;-77
2022/09/02 02:07:42;;;;;;;7.78;4.35;;;17.60;61.10;;;;;;5007805;28;20040;-78
2022/09/02 02:10:09;;;;;;;7.53;4.60;;;17.50;62.30;;;;;;4991400;28;20034;-77
2022/09/02 02:12:35;;;;;;;8.40;4.57;;;17.60;62.30;;;;;;4999553;28;20181;-76
2022/09/02 02:15:04;;;;;;;10.73;5.60;;;17.50;61.90;;;;;;5006968;28;20034;-77
2022/09/02 02:17:29;;;;;;;7.68;4.88;;;17.60;61.40;;;;;;4994173;28;20050;-78
2022/09/02 02:19:55;;;;;;;7.50;4.60;;;17.50;61.90;;;;;;5010239;28;20034;-78
2022/09/02 02:22:21;;;;;;;9.07;5.10;;;17.60;62.10;;;;;;5008834;28;20038;-78
2022/09/02 02:24:47;;;;;;;10.00;5.55;;;17.60;61.70;;;;;;5014639;28;20041;-78
2022/09/02 02:27:13;;;;;;;13.25;5.63;;;17.60;62.20;;;;;;5000218;28;20041;-77
2022/09/02 02:29:38;;;;;;;9.15;4.72;;;17.60;61.40;;;;;;5019275;28;20038;-77
2022/09/02 02:32:06;;;;;;;8.98;5.40;;;17.60;62.20;;;;;;5037099;28;20038;-77
2022/09/02 02:34:32;;;;;;;9.32;5.00;;;17.60;62.10;;;;;;5016487;28;20041;-78
2022/09/02 02:36:58;;;;;;;10.20;5.10;;;17.60;61.70;;;;;;5017065;28;20041;-78
2022/09/02 02:39:23;;;;;;;8.13;4.75;;;17.50;62.10;;;;;;5015722;28;20095;-77
2022/09/02 02:41:49;;;;;;;11.10;5.35;;;17.40;63.20;;;;;;5010291;28;20052;-77
2022/09/02 02:44:15;;;;;;;11.95;6.38;;;17.30;63.00;;;;;;5005930;28;20049;-77
2022/09/02 02:46:41;;;;;;;10.20;5.82;;;17.20;62.50;;;;;;5004149;28;20557;-78
2022/09/02 02:49:08;;;;;;;9.05;5.50;;;17.20;63.10;;;;;;5008249;28;20471;-79
2022/09/02 02:51:34;;;;;;;8.45;4.53;;;17.10;62.90;;;;;;5004637;28;20038;-79
2022/09/02 02:54:01;;;;;;;13.27;5.85;;;17.20;64.30;;;;;;5007739;28;20040;-79
2022/09/02 02:56:28;;;;;;;10.00;5.35;;;17.30;62.30;;;;;;5011422;28;20475;-79
2022/09/02 02:58:54;;;;;;;9.32;5.10;;;17.20;63.00;;;;;;5016813;28;20022;-78
2022/09/02 03:01:20;;;;;;;16.33;6.82;;;17.20;63.70;;;;;;5007269;28;20295;-79
2022/09/02 03:03:46;;;;;;;14.32;6.65;;;17.10;62.80;;;;;;5011728;28;20032;-79
2022/09/02 03:06:11;;;;;;;9.60;5.32;;;17.00;62.90;;;;;;5007626;28;20377;-79
2022/09/02 03:08:37;;;;;;;11.05;5.90;;;17.10;64.10;;;;;;5013349;28;20462;-79
2022/09/02 03:11:04;;;;;;;10.80;5.55;;;17.10;63.00;;;;;;5011170;28;20049;-79
2022/09/02 03:13:30;;;;;;;9.43;5.63;;;17.10;64.00;;;;;;5007669;28;20080;-79
2022/09/02 03:15:56;;;;;;;10.82;6.72;;;16.90;64.20;;;;;;5014253;28;20068;-79
2022/09/02 03:18:21;;;;;;;11.82;6.30;;;16.90;63.50;;;;;;5006872;28;20045;-79
2022/09/02 03:20:47;;;;;;;9.50;5.53;;;17.00;64.70;;;;;;5005133;28;20030;-79
2022/09/02 03:23:13;;;;;;;12.60;5.75;;;16.90;65.10;;;;;;4996637;28;20492;-78
2022/09/02 03:25:42;;;;;;;13.13;6.55;;;16.90;65.00;;;;;;5000811;28;20030;-79
2022/09/02 03:28:07;;;;;;;8.90;5.80;;;16.90;64.20;;;;;;5011149;28;20153;-79
2022/09/02 03:30:33;;;;;;;11.73;6.10;;;16.90;64.60;;;;;;5006736;28;20537;-79
2022/09/02 03:33:01;;;;;;;14.43;6.53;;;16.80;64.60;;;;;;5004341;28;20038;-79
2022/09/02 03:35:28;;;;;;;11.52;5.95;;;16.70;65.30;;;;;;4999170;28;20108;-79
2022/09/02 03:37:54;;;;;;;11.38;6.03;;;16.60;65.40;;;;;;5001897;28;20033;-78
2022/09/02 03:40:23;;;;;;;9.10;5.90;;;16.80;65.20;;;;;;5018102;28;20128;-79
2022/09/02 03:42:49;;;;;;;10.77;6.25;;;16.90;65.20;;;;;;5008312;28;20473;-78
2022/09/02 03:45:16;;;;;;;9.73;6.22;;;16.80;64.90;;;;;;5012088;28;20412;-79
2022/09/02 03:47:49;;;;;;;13.10;7.93;;;16.70;65.20;;;;;;5012775;28;20037;-79
2022/09/02 03:50:32;;;;;;;13.55;6.63;;;16.80;64.60;;;;;;5008102;28;20023;-76
2022/09/02 03:52:59;;;;;;;10.00;6.47;;;16.70;65.20;;;;;;5005211;28;20786;-76
2022/09/02 03:55:25;;;;;;;13.77;7.90;;;16.70;65.30;;;;;;5009974;28;20025;-76
2022/09/02 03:57:52;;;;;;;11.35;7.03;;;16.60;63.50;;;;;;5013424;28;20488;-76
2022/09/02 04:00:23;;;;;;;11.93;6.80;;;16.50;65.60;;;;;;5011892;28;20045;-77
2022/09/02 04:02:49;;;;;;;10.40;5.85;;;16.60;65.90;;;;;;4998557;28;20029;-77
2022/09/02 04:05:16;;;;;;;10.90;6.32;;;16.60;66.20;;;;;;5011669;28;20033;-77
2022/09/02 04:07:42;;;;;;;14.40;7.63;;;16.70;65.90;;;;;;4995374;28;20038;-76
2022/09/02 04:10:08;;;;;;;10.82;5.97;;;16.60;65.20;;;;;;5008237;28;20030;-77
2022/09/02 04:12:35;;;;;;;13.40;7.50;;;16.60;66.00;;;;;;5007468;28;20042;-77
2022/09/02 04:15:03;;;;;;;15.23;7.47;;;16.70;65.30;;;;;;5011551;28;20088;-77
2022/09/02 04:17:28;;;;;;;12.73;6.78;;;16.60;65.40;;;;;;4996693;28;20046;-77
2022/09/02 04:19:55;;;;;;;15.50;8.65;;;16.50;66.80;;;;;;5009919;28;20073;-77
2022/09/02 04:22:21;;;;;;;17.75;7.80;;;16.40;64.60;;;;;;5046846;28;20122;-77
2022/09/02 04:24:47;;;;;;;11.48;6.50;;;16.20;65.70;;;;;;4996975;28;20042;-78
2022/09/02 04:27:12;;;;;;;10.63;6.88;;;16.10;67.60;;;;;;4997221;28;20583;-77
2022/09/02 04:29:38;;;;;;;15.48;7.68;;;16.10;67.20;;;;;;4991530;28;20152;-77
2022/09/02 04:32:04;;;;;;;10.60;7.35;;;16.10;68.50;;;;;;4987866;28;20042;-77
2022/09/02 04:34:29;;;;;;;9.95;6.13;;;16.20;67.60;;;;;;4989073;28;20034;-77
2022/09/02 04:36:55;;;;;;;13.98;6.28;;;16.40;67.60;;;;;;4989232;28;20047;-77
2022/09/02 04:39:21;;;;;;;11.15;6.45;;;16.60;66.90;;;;;;5019193;28;20176;-77
2022/09/02 04:41:47;;;;;;;17.05;7.43;;;16.60;66.00;;;;;;4991462;28;20121;-77
2022/09/02 04:44:13;;;;;;;13.35;6.53;;;16.70;65.50;;;;;;4989618;28;20188;-77
2022/09/02 04:46:39;;;;;;;9.80;6.10;;;16.70;66.40;;;;;;4995912;28;20038;-77
2022/09/02 04:49:04;;;;;;;12.57;7.35;;;16.60;66.00;;;;;;5008613;28;20046;-77
2022/09/02 04:51:30;;;;;;;14.75;6.50;;;16.60;65.50;;;;;;5005317;28;20026;-76
2022/09/02 04:53:56;;;;;;;13.30;8.05;;;16.70;66.70;;;;;;5009209;28;20068;-77
2022/09/02 04:56:25;;;;;;;12.98;6.25;;;16.90;65.00;;;;;;4996524;28;20049;-77
2022/09/02 04:58:51;;;;;;;12.82;7.32;;;16.90;65.60;;;;;;4996271;28;20478;-77
2022/09/02 05:01:20;;;;;;;11.18;7.20;;;16.80;64.60;;;;;;4997523;28;20045;-77
2022/09/02 05:03:47;;;;;;;12.93;6.82;;;16.80;65.00;;;;;;4997044;28;20038;-77
2022/09/02 05:06:16;;;;;;;13.75;7.97;;;16.70;66.00;;;;;;4999624;28;20038;-77
2022/09/02 05:08:43;;;;;;;14.18;7.57;;;16.60;64.60;;;;;;5003930;28;20026;-76
2022/09/02 05:11:17;;;;;;;13.43;7.50;;;16.30;67.00;;;;;;4996226;28;20046;-77
2022/09/02 05:13:43;;;;;;;14.35;7.30;;;16.20;67.20;;;;;;5000506;28;20133;-76
2022/09/02 05:16:09;;;;;;;21.38;7.93;;;16.30;67.80;;;;;;4992743;28;20402;-76
2022/09/02 05:18:34;;;;;;;16.80;6.47;;;16.30;67.30;;;;;;4995526;28;20034;-76
2022/09/02 05:21:05;;;;;;;24.52;9.05;;;16.40;67.70;;;;;;4999197;28;20033;-76
2022/09/02 05:23:30;;;;;;;14.82;7.45;;;16.50;65.90;;;;;;4997136;28;20502;-77
2022/09/02 05:25:56;;;;;;;21.30;7.82;;;16.50;67.10;;;;;;5000815;28;20124;-76
2022/09/02 05:28:22;;;;;;;13.25;6.47;;;16.60;66.70;;;;;;4998896;28;20038;-76
2022/09/02 05:30:47;;;;;;;17.17;6.75;;;16.70;66.70;;;;;;5003370;28;20049;-77
2022/09/02 05:33:13;;;;;;;12.75;7.03;;;16.80;66.60;;;;;;5005459;28;20084;-76
2022/09/02 05:35:43;;;;;;;15.63;7.20;;;16.50;65.80;;;;;;4998485;28;20033;-77
2022/09/02 05:38:09;;;;;;;11.35;6.18;;;16.60;67.30;;;;;;5003618;28;20073;-77
2022/09/02 05:40:38;;;;;;;11.45;6.55;;;16.80;66.60;;;;;;5010853;28;20416;-77
2022/09/02 05:43:05;;;;;;;12.27;7.25;;;17.00;66.20;;;;;;5007366;28;20061;-77
2022/09/02 05:45:31;;;;;;;13.98;7.25;;;17.00;64.60;;;;;;5004090;28;20042;-77
2022/09/02 05:47:56;;;;;;;14.13;7.22;;;16.90;66.00;;;;;;5000508;28;20421;-78
2022/09/02 05:50:22;;;;;;;13.75;5.60;;;16.70;64.70;;;;;;5012867;28;20033;-77
2022/09/02 05:52:51;;;;;;;17.77;7.18;;;16.60;67.50;;;;;;5018614;28;20053;-77
2022/09/02 05:55:17;;;;;;;18.67;7.78;;;16.60;66.50;;;;;;5009654;28;20034;-77
2022/09/02 05:57:44;;;;;;;16.90;7.82;;;16.60;66.80;;;;;;5008370;28;20425;-77
2022/09/02 06:00:11;;;;;;;17.38;8.07;;;16.70;66.90;;;;;;5014004;28;20026;-77
2022/09/02 06:02:38;;;;;;;17.27;7.60;;;16.70;66.30;;;;;;4997946;28;20053;-77
2022/09/02 06:05:04;;;;;;;24.48;8.20;;;16.80;66.30;;;;;;4996241;28;20405;-77
2022/09/02 06:07:30;;;;;;;15.85;8.30;;;16.70;65.00;;;;;;5004464;28;20101;-77
2022/09/02 06:09:56;;;;;;;13.55;7.32;;;16.60;66.80;;;;;;5015945;28;20127;-78
2022/09/02 06:12:22;;;;;;;19.00;8.82;;;16.80;67.00;;;;;;5002284;28;20085;-77
2022/09/02 06:14:48;;;;;;;19.40;7.45;;;16.90;64.90;;;;;;5009046;28;20393;-77
2022/09/02 06:17:13;;;;;;;24.13;9.05;;;17.10;66.50;;;;;;5006982;28;20050;-72
2022/09/02 06:19:39;;;;;;;16.42;7.80;;;17.10;64.20;;;;;;5006564;28;20513;-77
2022/09/02 06:22:06;;;;;;;23.90;8.38;;;16.80;64.50;;;;;;4996731;28;20073;-77
2022/09/02 06:24:32;;;;;;;28.85;8.45;;;16.70;65.60;;;;;;5007227;28;20164;-77
2022/09/02 06:26:59;;;;;;;20.63;8.20;;;16.70;65.10;;;;;;4998901;28;20112;-77
2022/09/02 06:29:25;;;;;;;17.85;8.18;;;16.60;66.30;;;;;;5002704;28;20053;-77
2022/09/02 06:31:52;;;;;;;18.73;9.05;;;16.60;66.00;;;;;;5006134;28;20046;-77
2022/09/02 06:34:20;;;;;;;24.45;9.43;;;16.60;66.00;;;;;;5005237;28;20029;-76
2022/09/02 06:36:47;;;;;;;17.23;7.97;;;16.60;66.30;;;;;;5007475;28;20409;-77
2022/09/02 06:39:17;;;;;;;21.92;8.38;;;16.60;66.90;;;;;;5001102;28;20786;-77
2022/09/02 06:41:45;;;;;;;14.38;7.57;;;16.60;67.90;;;;;;4985509;28;20038;-72
2022/09/02 06:44:12;;;;;;;16.20;8.32;;;16.90;67.90;;;;;;5010780;28;20128;-77
2022/09/02 06:46:41;;;;;;;14.10;7.55;;;17.10;66.00;;;;;;5000167;28;20044;-77
2022/09/02 06:49:08;;;;;;;15.73;8.07;;;17.20;67.20;;;;;;4999280;28;20250;-76
2022/09/02 06:51:46;;;;;;;15.55;8.80;;;17.50;64.90;;;;;;4995389;28;20060;-76
2022/09/02 06:54:15;;;;;;;12.52;7.80;;;17.50;64.80;;;;;;5003079;28;20035;-76
2022/09/02 06:56:42;;;;;;;13.30;7.03;;;17.60;65.80;;;;;;5002122;28;20041;-76
2022/09/02 06:59:09;;;;;;;13.07;7.88;;;17.80;65.30;;;;;;5008931;28;20037;-77
2022/09/02 07:01:35;;;;;;;14.73;7.20;;;18.10;64.30;;;;;;4997362;28;20145;-76
2022/09/02 07:06:50;;;;;;;13.93;7.03;;;18.40;63.60;;;;;;5001620;28;20075;-76
2022/09/02 07:09:19;;;;;;;18.00;6.30;;;18.80;62.60;;;;;;5006741;28;20056;-76
2022/09/02 07:11:46;;;;;;;20.92;5.55;;;19.00;62.90;;;;;;5009356;28;20552;-77
2022/09/02 07:14:14;;;;;;;13.20;7.03;;;19.20;62.70;;;;;;5019349;28;20453;-82
2022/09/02 07:16:44;;;;;;;11.68;6.28;;;19.40;61.50;;;;;;5003993;28;20060;-81
2022/09/02 07:19:10;;;;;;;13.23;7.18;;;19.60;61.60;;;;;;4999501;28;20062;-81
2022/09/02 07:21:36;;;;;;;13.50;7.32;;;19.80;60.10;;;;;;5000811;28;20037;-81
2022/09/02 07:24:01;;;;;;;10.25;5.45;;;20.10;59.10;;;;;;5000631;28;20026;-81
2022/09/02 07:26:28;;;;;;;14.68;8.07;;;20.00;60.20;;;;;;5000990;28;20049;-79
2022/09/02 07:28:54;;;;;;;14.02;7.60;;;20.10;59.10;;;;;;5005156;28;20571;-81
2022/09/02 07:31:20;;;;;;;20.85;8.65;;;20.20;58.40;;;;;;4999136;28;20116;-81
2022/09/02 07:33:46;;;;;;;10.93;5.82;;;20.30;58.00;;;;;;5005007;28;20033;-80
2022/09/02 07:36:13;;;;;;;13.07;7.60;;;20.50;59.00;;;;;;4998185;28;20029;-82
2022/09/02 07:38:41;;;;;;;14.35;7.50;;;20.70;58.50;;;;;;4998566;28;20038;-82
2022/09/02 07:41:08;;;;;;;12.35;7.78;;;20.80;57.90;;;;;;4999152;28;20467;-82
2022/09/02 07:43:35;;;;;;;13.15;7.30;;;21.00;57.60;;;;;;5001096;28;20038;-82
2022/09/02 07:46:02;;;;;;;11.45;7.53;;;21.10;57.60;;;;;;5002328;28;20136;-82
2022/09/02 07:48:29;;;;;;;16.15;9.05;;;21.20;57.30;;;;;;4992165;28;20038;-81
2022/09/02 07:50:56;;;;;;;15.63;8.88;;;21.40;57.50;;;;;;4999280;28;20081;-82
2022/09/02 07:53:22;;;;;;;14.55;7.07;;;21.60;56.30;;;;;;5001768;28;20041;-79
2022/09/02 07:55:48;;;;;;;13.00;9.02;;;21.80;56.50;;;;;;5008090;28;20061;-80
2022/09/02 07:58:16;;;;;;;12.43;8.00;;;21.90;56.20;;;;;;5012748;28;20107;-79
2022/09/02 08:00:42;;;;;;;12.65;7.93;;;22.10;56.10;;;;;;5011208;28;20038;-80
2022/09/02 08:03:10;;;;;;;13.70;7.28;;;22.30;55.40;;;;;;5006829;28;20478;-80
2022/09/02 08:05:37;;;;;;;15.27;9.95;;;22.50;55.20;;;;;;5013316;28;20026;-82
2022/09/02 08:08:05;;;;;;;9.32;7.57;;;22.60;54.20;;;;;;4999842;28;20041;-83
2022/09/02 08:10:32;;;;;;;10.93;7.15;;;22.60;54.90;;;;;;5011945;28;20086;-82
2022/09/02 08:13:02;;;;;;;12.25;8.32;;;22.80;54.40;;;;;;5007447;28;20050;-83
2022/09/02 08:15:29;;;;;;;12.82;8.20;;;23.00;54.10;;;;;;4994970;28;20652;-84
2022/09/02 08:17:56;;;;;;;10.05;7.95;;;23.10;53.60;;;;;;4992704;28;20057;-81
2022/09/02 08:20:22;;;;;;;11.80;7.68;;;23.40;53.30;;;;;;4996154;28;20034;-82
2022/09/02 08:22:48;;;;;;;11.70;8.00;;;23.50;53.10;;;;;;4990407;28;20958;-83
2022/09/02 08:25:16;;;;;;;11.70;8.25;;;23.70;52.70;;;;;;4986860;28;20137;-83
2022/09/02 08:27:42;;;;;;;12.25;7.15;;;23.70;52.40;;;;;;5004762;28;20919;-81
2022/09/02 08:30:09;;;;;;;12.85;7.85;;;23.90;52.60;;;;;;4992734;28;20109;-82
2022/09/02 08:32:36;;;;;;;12.23;7.40;;;24.00;52.60;;;;;;5014781;28;20424;-83
2022/09/02 08:35:04;;;;;;;14.60;7.68;;;24.10;52.00;;;;;;5016395;28;20529;-82
2022/09/02 08:37:31;;;;;;;10.07;6.55;;;24.10;51.90;;;;;;5016666;28;20544;-83
2022/09/02 08:39:58;;;;;;;12.57;6.60;;;24.30;52.30;;;;;;5002828;28;20037;-82
2022/09/02 08:42:37;;;;;;;12.32;7.30;;;24.60;51.90;;;;;;4993292;28;20070;-86
2022/09/02 08:45:16;;;;;;;10.75;7.10;;;24.70;51.50;;;;;;5014812;28;20037;-88
2022/09/02 08:47:46;;;;;;;12.40;7.20;;;24.80;50.40;;;;;;5002201;28;20037;-86
2022/09/02 08:50:15;;;;;;;16.65;7.20;;;25.00;49.90;;;;;;5002718;28;20035;-80
2022/09/02 08:53:15;;;;;;;10.57;6.20;;;25.10;49.80;;;;;;5009950;28;20037;-84
2022/09/02 08:55:50;;;;;;;12.40;6.57;;;25.20;49.70;;;;;;5005636;28;20426;-87
2022/09/02 08:58:22;;;;;;;13.32;7.40;;;25.30;49.40;;;;;;5006042;28;20046;-87
2022/09/02 09:01:17;;;;;;;11.40;7.20;;;25.60;48.40;;;;;;5006953;28;20104;-84
2022/09/02 09:04:11;;;;;;;10.02;6.40;;;25.60;48.60;;;;;;5001030;28;20180;-85
2022/09/02 09:06:55;;;;;;;11.75;7.05;;;25.80;47.90;;;;;;5016006;28;20441;-87
2022/09/02 09:09:36;;;;;;;12.02;7.30;;;25.80;47.80;;;;;;5008089;28;23123;-78
2022/09/02 09:12:17;;;;;;;11.35;6.40;;;25.80;48.90;;;;;;5004073;28;20046;-80
2022/09/02 09:14:54;;;;;;;10.00;6.10;;;25.90;48.60;;;;;;4996998;28;20061;-78
2022/09/02 09:17:40;;;;;;;13.15;6.43;;;26.00;48.50;;;;;;5003902;28;20057;-81
2022/09/02 09:20:15;;;;;;;10.00;6.32;;;26.10;47.70;;;;;;5019433;28;20076;-81
2022/09/02 09:22:42;;;;;;;9.98;5.75;;;26.30;47.30;;;;;;5000570;28;20022;-81
2022/09/02 09:25:14;;;;;;;14.48;6.72;;;26.30;47.50;;;;;;5015588;28;20046;-83
2022/09/02 09:27:40;;;;;;;10.57;6.80;;;26.50;47.10;;;;;;5012588;28;20535;-79
2022/09/02 09:30:08;;;;;;;10.30;6.90;;;26.60;46.80;;;;;;5008125;28;20048;-83
2022/09/02 09:32:41;;;;;;;13.95;7.18;;;26.60;47.00;;;;;;5020648;28;20036;-83
2022/09/02 09:35:11;;;;;;;10.57;6.18;;;26.50;46.80;;;;;;5018411;28;20035;-83
2022/09/02 09:37:41;;;;;;;11.07;6.15;;;26.20;47.50;;;;;;5012783;28;20049;-80
2022/09/02 09:40:24;;;;;;;12.43;5.72;;;26.50;47.60;;;;;;5013148;28;20030;-80
2022/09/02 09:42:55;;;;;;;10.88;5.25;;;26.80;46.70;;;;;;5009649;28;20073;-79
2022/09/02 09:45:34;;;;;;;9.45;5.95;;;27.00;46.50;;;;;;5012691;28;20470;-81
2022/09/02 09:48:32;;;;;;;9.88;5.28;;;26.70;45.70;;;;;;5011571;28;20203;-79
2022/09/02 09:50:58;;;;;;;8.10;5.25;;;26.70;45.40;;;;;;4972463;28;20037;-83
2022/09/02 09:53:28;;;;;;;6.82;4.97;;;26.80;45.80;;;;;;5008392;28;20046;-81
2022/09/02 09:56:04;;;;;;;8.75;4.90;;;27.10;45.20;;;;;;5017112;28;20022;-81
2022/09/02 09:58:38;;;;;;;8.95;5.22;;;27.20;43.70;;;;;;4993373;28;20050;-81
2022/09/02 10:01:30;;;;;;;8.68;4.88;;;27.10;45.10;;;;;;4987538;28;20046;-80
2022/09/02 10:04:31;;;;;;;7.43;4.90;;;27.20;44.40;;;;;;4988398;28;20165;-79
2022/09/02 10:06:57;;;;;;;9.55;5.45;;;27.10;44.40;;;;;;4997332;28;20117;-80
2022/09/02 10:09:35;;;;;;;7.90;5.00;;;27.00;43.40;;;;;;4979980;28;20046;-78
2022/09/02 10:12:10;;;;;;;7.82;5.20;;;26.90;44.30;;;;;;4974709;28;20046;-78
2022/09/02 10:14:46;;;;;;;9.05;5.25;;;26.70;44.10;;;;;;5016709;28;20274;-79
2022/09/02 10:17:36;;;;;;;8.13;4.85;;;26.20;45.50;;;;;;5015349;28;20067;-79
2022/09/02 10:20:34;;;;;;;8.05;4.55;;;26.50;45.70;;;;;;5011161;28;20096;-80
2022/09/02 10:23:18;;;;;;;9.10;4.95;;;26.80;44.60;;;;;;5020236;28;20476;-78
2022/09/02 10:25:54;;;;;;;8.05;5.18;;;26.90;44.40;;;;;;5019792;28;20080;-80
2022/09/02 10:28:41;;;;;;;10.38;4.47;;;27.10;43.70;;;;;;5006118;28;20037;-79
2022/09/02 10:31:23;;;;;;;8.85;5.00;;;27.50;43.40;;;;;;5008118;28;20045;-81
2022/09/02 10:34:23;;;;;;;10.45;4.60;;;27.60;43.70;;;;;;5017594;28;20081;-81
2022/09/02 10:37:11;;;;;;;9.90;4.80;;;28.10;42.70;;;;;;5040220;28;20037;-79
2022/09/02 10:40:18;;;;;;;7.05;4.22;;;28.10;40.80;;;;;;5040444;28;20034;-78
2022/09/02 10:42:53;;;;;;;10.77;4.55;;;27.30;42.60;;;;;;4976077;28;20060;-76
2022/09/02 10:45:42;;;;;;;6.60;4.20;;;27.50;42.90;;;;;;4974256;28;20027;-77
2022/09/02 10:48:27;;;;;;;7.40;4.40;;;27.80;42.20;;;;;;4974142;28;20343;-76
2022/09/02 10:50:53;;;;;;;9.48;4.35;;;28.20;42.80;;;;;;4972429;28;20030;-80
2022/09/02 10:53:50;;;;;;;7.07;4.10;;;28.50;40.60;;;;;;5004091;28;20057;-79
2022/09/02 10:56:29;;;;;;;5.40;3.97;;;28.60;40.30;;;;;;4974588;28;20027;-80
2022/09/02 10:59:36;;;;;;;6.15;4.25;;;28.60;40.10;;;;;;4973076;28;20034;-80
2022/09/02 11:02:11;;;;;;;7.13;3.95;;;29.00;39.20;;;;;;4932241;28;20060;-81
2022/09/02 11:04:50;;;;;;;7.10;3.90;;;28.60;40.00;;;;;;4933234;28;20063;-81
2022/09/02 11:07:25;;;;;;;6.40;4.20;;;28.60;40.20;;;;;;4969258;28;20069;-81
2022/09/02 11:10:04;;;;;;;6.68;3.95;;;28.60;39.90;;;;;;4988987;28;20030;-82
2022/09/02 11:12:46;;;;;;;6.22;3.78;;;28.80;39.90;;;;;;4993959;28;20045;-80
2022/09/02 11:15:18;;;;;;;7.72;4.35;;;29.10;40.00;;;;;;4992784;28;20042;-82
2022/09/02 11:17:51;;;;;;;6.88;4.00;;;29.00;39.60;;;;;;4997160;28;20360;-81
2022/09/02 11:20:29;;;;;;;7.10;4.13;;;29.10;39.50;;;;;;4995232;28;20036;-76
2022/09/02 11:23:12;;;;;;;9.63;4.60;;;29.10;39.70;;;;;;4993239;28;20025;-80
2022/09/02 11:25:56;;;;;;;7.25;4.20;;;29.30;39.60;;;;;;5007886;28;20438;-80
2022/09/02 11:28:24;;;;;;;7.20;4.13;;;29.20;38.70;;;;;;4996925;28;20321;-80
2022/09/02 11:30:58;;;;;;;7.30;4.15;;;29.10;39.60;;;;;;4998216;28;20053;-83
2022/09/02 11:33:57;;;;;;;25.33;6.72;;;29.00;40.00;;;;;;4997427;28;20034;-83
2022/09/02 11:36:25;;;;;;;6.45;4.00;;;29.10;40.50;;;;;;4997658;28;20240;-81
2022/09/02 11:38:59;;;;;;;11.55;4.10;;;29.40;38.40;;;;;;4999484;28;20022;-81
2022/09/02 11:41:39;;;;;;;32.15;7.38;;;29.60;37.70;;;;;;5000846;28;20026;-81
2022/09/02 11:44:14;;;;;;;7.05;4.40;;;29.50;37.90;;;;;;5005152;28;20041;-82
2022/09/02 11:46:59;;;;;;;8.07;4.55;;;29.60;38.60;;;;;;5001340;28;20058;-81
2022/09/02 11:49:36;;;;;;;8.25;4.07;;;29.80;38.40;;;;;;5000106;28;20117;-81
2022/09/02 11:52:23;;;;;;;6.70;3.90;;;29.90;38.20;;;;;;4998275;28;20045;-81
2022/09/02 11:55:15;;;;;;;8.25;4.22;;;30.00;37.60;;;;;;5039969;28;20385;-82
2022/09/02 11:57:41;;;;;;;7.15;4.00;;;29.90;38.50;;;;;;4998853;28;20070;-81
2022/09/02 12:00:29;;;;;;;8.45;3.97;;;29.70;37.90;;;;;;4995899;28;20474;-83
2022/09/02 12:03:08;;;;;;;8.23;3.53;;;29.70;36.40;;;;;;4998123;28;20033;-82
2022/09/02 12:05:34;;;;;;;9.52;4.25;;;29.60;37.50;;;;;;5010472;28;20116;-77
2022/09/02 12:08:13;;;;;;;8.25;4.32;;;29.60;37.10;;;;;;5014828;28;20161;-76
2022/09/02 12:10:42;;;;;;;6.65;3.97;;;29.00;37.20;;;;;;5004028;28;20482;-81
2022/09/02 12:13:42;;;;;;;8.27;4.18;;;28.80;38.30;;;;;;5016751;28;20132;-77
2022/09/02 12:16:22;;;;;;;8.30;4.72;;;29.10;38.10;;;;;;5012888;28;20387;-77
2022/09/02 12:18:54;;;;;;;7.28;3.90;;;29.20;37.80;;;;;;5004156;28;20058;-77
2022/09/02 12:21:24;;;;;;;10.23;4.32;;;29.30;37.50;;;;;;5009051;28;20030;-79
2022/09/02 12:23:51;;;;;;;9.10;4.13;;;29.30;37.30;;;;;;5005744;28;20466;-80
2022/09/02 12:26:21;;;;;;;9.63;4.63;;;29.10;38.70;;;;;;5005246;28;20033;-79
2022/09/02 12:28:48;;;;;;;7.85;4.18;;;29.50;37.80;;;;;;5003287;28;20585;-78
2022/09/02 12:31:40;;;;;;;8.10;4.22;;;29.80;37.30;;;;;;5002325;28;20038;-79
2022/09/02 12:34:24;;;;;;;8.30;4.20;;;30.10;35.80;;;;;;5006062;28;20034;-78
2022/09/02 12:36:54;;;;;;;8.48;4.28;;;30.30;36.00;;;;;;5006724;28;20177;-77
2022/09/02 12:39:34;;;;;;;7.88;4.15;;;30.50;35.60;;;;;;5011974;28;20409;-79
2022/09/02 12:42:05;;;;;;;8.60;3.80;;;30.50;36.10;;;;;;5005029;28;20042;-79
2022/09/02 12:44:34;;;;;;;7.78;4.10;;;30.60;35.70;;;;;;5033698;28;20579;-77
2022/09/02 12:47:07;;;;;;;7.43;3.95;;;30.50;35.50;;;;;;4998491;28;20038;-76
2022/09/02 12:50:03;;;;;;;7.45;4.30;;;30.20;35.40;;;;;;5017051;28;20034;-78
2022/09/02 12:52:35;;;;;;;5.05;3.45;;;29.60;36.30;;;;;;4987540;28;20031;-79
2022/09/02 12:55:30;;;;;;;8.70;4.10;;;29.50;36.40;;;;;;5001967;28;20506;-82
2022/09/02 12:58:20;;;;;;;8.23;4.20;;;29.50;36.90;;;;;;5006339;28;20056;-78
2022/09/02 13:01:07;;;;;;;9.98;4.53;;;29.60;36.60;;;;;;5008981;28;20052;-81
2022/09/02 13:04:02;;;;;;;7.57;4.47;;;29.50;37.10;;;;;;5010764;28;20450;-78